createdAt,value
2022-08-05T00:00:30.618Z,23.5
2022-08-05T00:01:36.922Z,23.5
2022-08-05T00:02:42.206Z,23.5
2022-08-05T00:03:48.458Z,23.5
2022-08-05T00:04:54.728Z,23.5
2022-08-05T00:06:01.022Z,23.4
2022-08-05T00:07:07.276Z,23.4
2022-08-05T00:08:12.578Z,23.4
2022-08-05T00:09:18.856Z,23.3
2022-08-05T00:10:25.100Z,23.3
2022-08-05T00:11:31.378Z,23.3
2022-08-05T00:12:37.644Z,23.2
2022-08-05T00:13:43.936Z,23.2
2022-08-05T00:14:50.180Z,23.2
2022-08-05T00:15:56.498Z,23.2
2022-08-05T00:17:02.733Z,23.2
2022-08-05T00:18:09.027Z,23.2
2022-08-05T00:19:15.293Z,23.2
2022-08-05T00:20:21.586Z,23.2
2022-08-05T00:21:27.813Z,23.2
2022-08-05T00:22:33.135Z,23.2
2022-08-05T00:23:39.401Z,23.2
2022-08-05T00:24:45.661Z,23.2
2022-08-05T00:25:51.938Z,23.2
2022-08-05T00:26:58.197Z,23.2
2022-08-05T00:28:04.475Z,23.2
2022-08-05T00:29:10.766Z,23.2
2022-08-05T00:30:17.052Z,23.2
2022-08-05T00:31:23.302Z,23.1
2022-08-05T00:32:29.568Z,23.1
2022-08-05T00:33:35.818Z,23
2022-08-05T00:34:42.117Z,23
2022-08-05T00:35:48.411Z,22.9
2022-08-05T00:36:53.665Z,22.9
2022-08-05T00:37:59.942Z,22.9
2022-08-05T00:39:06.229Z,22.9
2022-08-05T00:40:12.488Z,22.9
2022-08-05T00:41:18.748Z,22.9
2022-08-05T00:42:25.022Z,22.9
2022-08-05T00:43:31.280Z,22.9
2022-08-05T00:44:37.567Z,22.9
2022-08-05T00:45:43.823Z,22.9
2022-08-05T00:46:50.117Z,22.9
2022-08-05T00:47:56.402Z,22.9
2022-08-05T00:49:02.645Z,22.9
2022-08-05T00:50:08.969Z,22.9
2022-08-05T00:51:14.204Z,22.9
2022-08-05T00:52:20.508Z,22.9
2022-08-05T00:53:26.763Z,23
2022-08-05T00:54:33.041Z,23
2022-08-05T00:55:39.306Z,23
2022-08-05T00:56:45.572Z,23
2022-08-05T00:57:51.828Z,23
2022-08-05T00:58:58.126Z,23
2022-08-05T01:00:04.420Z,23
2022-08-05T01:01:10.648Z,23
2022-08-05T01:02:16.945Z,23
2022-08-05T01:03:23.226Z,22.9
2022-08-05T01:04:29.464Z,22.9
2022-08-05T01:05:34.755Z,22.9
2022-08-05T01:06:41.022Z,22.9
2022-08-05T01:07:47.287Z,22.9
2022-08-05T01:08:53.590Z,22.9
2022-08-05T01:09:59.848Z,22.9
2022-08-05T01:11:06.108Z,22.9
2022-08-05T01:12:12.392Z,22.9
2022-08-05T01:13:18.645Z,22.9
2022-08-05T01:14:24.945Z,23
2022-08-05T01:15:31.214Z,22.9
2022-08-05T01:16:37.456Z,23
2022-08-05T01:17:43.731Z,23
2022-08-05T01:18:50.033Z,23
2022-08-05T01:19:55.289Z,23
2022-08-05T01:21:01.597Z,23
2022-08-05T01:22:07.833Z,23
2022-08-05T01:23:14.109Z,23
2022-08-05T01:24:20.382Z,23
2022-08-05T01:25:26.695Z,23
2022-08-05T01:26:32.935Z,23
2022-08-05T01:27:39.227Z,23
2022-08-05T01:28:45.476Z,22.9
2022-08-05T01:29:51.732Z,22.9
2022-08-05T01:30:58.045Z,22.8
2022-08-05T01:32:04.297Z,22.8
2022-08-05T01:33:10.573Z,22.8
2022-08-05T01:34:15.846Z,22.8
2022-08-05T01:35:22.103Z,22.8
2022-08-05T01:36:28.380Z,22.8
2022-08-05T01:37:34.688Z,22.8
2022-08-05T01:38:40.960Z,22.8
2022-08-05T01:39:47.198Z,22.8
2022-08-05T01:40:53.489Z,22.8
2022-08-05T01:41:59.749Z,22.8
2022-08-05T01:43:06.017Z,22.8
2022-08-05T01:44:12.306Z,22.8
2022-08-05T01:45:18.552Z,22.8
2022-08-05T01:46:24.829Z,22.8
2022-08-05T01:47:31.094Z,22.8
2022-08-05T01:48:36.421Z,22.8
2022-08-05T01:49:42.655Z,22.7
2022-08-05T01:50:48.928Z,22.7
2022-08-05T01:51:55.229Z,22.7
2022-08-05T01:53:01.471Z,22.7
2022-08-05T01:54:07.741Z,22.6
2022-08-05T01:55:14.034Z,22.6
2022-08-05T01:56:20.283Z,22.6
2022-08-05T01:57:26.560Z,22.6
2022-08-05T01:58:32.830Z,22.6
2022-08-05T01:59:39.125Z,22.6
2022-08-05T02:00:45.413Z,22.6
2022-08-05T02:01:51.645Z,22.6
2022-08-05T02:02:56.930Z,22.5
2022-08-05T02:04:03.212Z,22.5
2022-08-05T02:05:09.479Z,22.5
2022-08-05T02:06:15.750Z,22.5
2022-08-05T02:07:22.020Z,22.5
2022-08-05T02:08:28.306Z,22.5
2022-08-05T02:09:34.599Z,22.5
2022-08-05T02:10:40.877Z,22.5
2022-08-05T02:11:47.101Z,22.3
2022-08-05T02:12:53.407Z,22.3
2022-08-05T02:13:59.666Z,22.2
2022-08-05T02:15:05.961Z,22.2
2022-08-05T02:16:12.199Z,22.1
2022-08-05T02:17:17.483Z,22.1
2022-08-05T02:18:23.746Z,22
2022-08-05T02:19:30.042Z,22
2022-08-05T02:20:36.340Z,22
2022-08-05T02:21:42.564Z,22
2022-08-05T02:22:48.894Z,22
2022-08-05T02:23:55.125Z,22
2022-08-05T02:25:01.387Z,22
2022-08-05T02:26:07.651Z,22
2022-08-05T02:27:13.915Z,22.1
2022-08-05T02:28:20.208Z,22
2022-08-05T02:29:26.465Z,22
2022-08-05T02:30:32.754Z,22
2022-08-05T02:31:38.071Z,22
2022-08-05T02:32:44.341Z,22
2022-08-05T02:33:50.593Z,21.9
2022-08-05T02:34:56.850Z,21.9
2022-08-05T02:36:03.121Z,21.8
2022-08-05T02:37:09.381Z,21.8
2022-08-05T02:38:15.676Z,21.7
2022-08-05T02:39:21.919Z,21.6
2022-08-05T02:40:28.245Z,21.6
2022-08-05T02:41:34.478Z,21.6
2022-08-05T02:42:40.804Z,21.6
2022-08-05T02:43:47.022Z,21.6
2022-08-05T02:44:53.310Z,21.6
2022-08-05T02:45:58.614Z,21.6
2022-08-05T02:47:04.854Z,21.6
2022-08-05T02:48:11.123Z,21.6
2022-08-05T02:49:17.400Z,21.6
2022-08-05T02:50:23.692Z,21.7
2022-08-05T02:51:29.962Z,21.7
2022-08-05T02:52:36.242Z,21.7
2022-08-05T02:53:42.516Z,21.7
2022-08-05T02:54:48.786Z,21.7
2022-08-05T02:55:55.063Z,21.8
2022-08-05T02:57:01.331Z,21.8
2022-08-05T02:58:07.585Z,21.7
2022-08-05T02:59:13.843Z,21.8
2022-08-05T03:00:19.145Z,21.8
2022-08-05T03:01:25.418Z,21.7
2022-08-05T03:02:31.712Z,21.7
2022-08-05T03:03:37.961Z,21.6
2022-08-05T03:04:44.254Z,21.6
2022-08-05T03:05:50.496Z,21.6
2022-08-05T03:06:56.761Z,21.6
2022-08-05T03:08:03.039Z,21.6
2022-08-05T03:09:09.311Z,21.6
2022-08-05T03:10:15.610Z,21.6
2022-08-05T03:11:21.851Z,21.6
2022-08-05T03:12:28.151Z,21.6
2022-08-05T03:13:34.395Z,21.6
2022-08-05T03:14:39.699Z,21.6
2022-08-05T03:15:46.003Z,21.6
2022-08-05T03:16:52.241Z,21.6
2022-08-05T03:17:58.499Z,21.6
2022-08-05T03:19:04.781Z,21.6
2022-08-05T03:20:11.044Z,21.6
2022-08-05T03:21:17.326Z,21.6
2022-08-05T03:22:23.594Z,21.6
2022-08-05T03:23:29.856Z,21.5
2022-08-05T03:24:36.135Z,21.5
2022-08-05T03:25:42.402Z,21.3
2022-08-05T03:26:48.725Z,21.2
2022-08-05T03:27:54.956Z,21
2022-08-05T03:29:00.274Z,20.9
2022-08-05T03:30:06.524Z,20.9
2022-08-05T03:31:12.789Z,20.9
2022-08-05T03:32:19.059Z,20.8
2022-08-05T03:33:25.356Z,20.9
2022-08-05T03:34:31.597Z,20.9
2022-08-05T03:35:37.906Z,20.9
2022-08-05T03:36:44.178Z,20.9
2022-08-05T03:37:50.424Z,20.9
2022-08-05T03:38:56.691Z,21
2022-08-05T03:40:03.768Z,21
2022-08-05T03:41:09.240Z,21
2022-08-05T03:42:15.519Z,21.1
2022-08-05T03:43:20.817Z,21.1
2022-08-05T03:44:27.101Z,21.2
2022-08-05T03:45:33.343Z,21.2
2022-08-05T03:46:39.638Z,21.2
2022-08-05T03:47:45.900Z,21.3
2022-08-05T03:48:52.188Z,21.3
2022-08-05T03:49:58.465Z,21.3
2022-08-05T03:51:03.730Z,21.4
2022-08-05T03:52:09.998Z,21.4
2022-08-05T03:53:16.276Z,21.4
2022-08-05T03:54:22.553Z,21.4
2022-08-05T03:55:28.822Z,21.4
2022-08-05T03:56:35.123Z,21.4
2022-08-05T03:57:41.399Z,21.4
2022-08-05T03:58:47.642Z,21.5
2022-08-05T03:59:53.909Z,21.5
2022-08-05T04:01:00.206Z,21.5
2022-08-05T04:02:06.481Z,21.5
2022-08-05T04:03:12.750Z,21.5
2022-08-05T04:04:19.011Z,21.5
2022-08-05T04:05:24.312Z,21.5
2022-08-05T04:06:30.560Z,21.5
2022-08-05T04:07:36.831Z,21.5
2022-08-05T04:08:43.098Z,21.4
2022-08-05T04:09:49.372Z,21.5
2022-08-05T04:10:55.664Z,21.5
2022-08-05T04:12:01.932Z,21.5
2022-08-05T04:13:08.206Z,21.5
2022-08-05T04:14:14.460Z,21.5
2022-08-05T04:15:20.743Z,21.6
2022-08-05T04:16:27.009Z,21.6
2022-08-05T04:17:33.285Z,21.6
2022-08-05T04:18:39.555Z,21.6
2022-08-05T04:19:44.850Z,21.7
2022-08-05T04:20:51.110Z,21.7
2022-08-05T04:21:57.387Z,21.7
2022-08-05T04:23:03.681Z,21.7
2022-08-05T04:24:09.945Z,21.8
2022-08-05T04:25:16.214Z,21.8
2022-08-05T04:26:22.481Z,21.8
2022-08-05T04:27:28.750Z,21.9
2022-08-05T04:28:35.017Z,21.9
2022-08-05T04:29:41.292Z,21.9
2022-08-05T04:30:47.572Z,21.9
2022-08-05T04:31:53.837Z,22
2022-08-05T04:33:00.117Z,22
2022-08-05T04:34:05.412Z,22.1
2022-08-05T04:35:11.675Z,22.1
2022-08-05T04:36:17.943Z,22.2
2022-08-05T04:37:24.223Z,22.2
2022-08-05T04:38:30.488Z,22.2
2022-08-05T04:39:36.768Z,22.3
2022-08-05T04:40:42.072Z,22.3
2022-08-05T04:41:47.351Z,22.3
2022-08-05T04:42:52.645Z,22.3
2022-08-05T04:43:57.949Z,22.4
2022-08-05T04:45:04.247Z,22.4
2022-08-05T04:46:10.488Z,22.5
2022-08-05T04:47:16.758Z,22.5
2022-08-05T04:48:23.026Z,22.5
2022-08-05T04:49:29.297Z,22.5
2022-08-05T04:50:35.568Z,22.5
2022-08-05T04:51:41.847Z,22.5
2022-08-05T04:52:48.104Z,22.5
2022-08-05T04:53:54.379Z,22.5
2022-08-05T04:55:00.659Z,22.6
2022-08-05T04:56:06.939Z,22.5
2022-08-05T04:57:13.199Z,22.6
2022-08-05T04:58:18.506Z,22.6
2022-08-05T04:59:24.753Z,22.6
2022-08-05T05:00:31.031Z,22.6
2022-08-05T05:01:37.308Z,22.6
2022-08-05T05:02:43.571Z,22.6
2022-08-05T05:03:49.839Z,22.6
2022-08-05T05:04:56.113Z,22.6
2022-08-05T05:06:01.415Z,22.6
2022-08-05T05:07:06.710Z,22.6
2022-08-05T05:08:12.979Z,22.6
2022-08-05T05:09:18.278Z,22.6
2022-08-05T05:10:23.569Z,22.6
2022-08-05T05:11:29.829Z,22.6
2022-08-05T05:12:36.105Z,22.6
2022-08-05T05:13:42.383Z,22.6
2022-08-05T05:14:48.645Z,22.6
2022-08-05T05:15:54.920Z,22.6
2022-08-05T05:17:01.236Z,22.6
2022-08-05T05:18:07.472Z,22.6
2022-08-05T05:19:13.729Z,22.6
2022-08-05T05:20:19.997Z,22.7
2022-08-05T05:21:26.279Z,22.7
2022-08-05T05:22:32.546Z,22.7
2022-08-05T05:23:38.823Z,22.7
2022-08-05T05:24:44.101Z,22.7
2022-08-05T05:25:50.377Z,22.8
2022-08-05T05:26:56.655Z,22.8
2022-08-05T05:28:02.936Z,22.9
2022-08-05T05:29:09.209Z,22.9
2022-08-05T05:30:15.462Z,22.9
2022-08-05T05:31:21.757Z,22.9
2022-08-05T05:32:27.035Z,23
2022-08-05T05:33:32.323Z,23
2022-08-05T05:34:37.616Z,22.9
2022-08-05T05:35:42.904Z,23
2022-08-05T05:36:49.181Z,23
2022-08-05T05:37:55.454Z,23
2022-08-05T05:39:01.736Z,23
2022-08-05T05:40:08.000Z,23
2022-08-05T05:41:14.270Z,23
2022-08-05T05:42:20.540Z,23
2022-08-05T05:43:26.816Z,23
2022-08-05T05:44:33.087Z,23
2022-08-05T05:45:39.353Z,23
2022-08-05T05:46:45.632Z,23.1
2022-08-05T05:47:51.898Z,23.1
2022-08-05T05:48:58.172Z,23.1
2022-08-05T05:50:03.468Z,23.1
2022-08-05T05:51:09.739Z,23.1
2022-08-05T05:52:16.000Z,23.1
2022-08-05T05:53:22.284Z,23.1
2022-08-05T05:54:28.549Z,23.1
2022-08-05T05:55:34.818Z,23.1
2022-08-05T05:56:41.121Z,23.1
2022-08-05T05:57:46.388Z,23.1
2022-08-05T05:58:51.681Z,23.1
2022-08-05T05:59:57.952Z,23.1
2022-08-05T06:01:04.221Z,23.1
2022-08-05T06:02:10.491Z,23.1
2022-08-05T06:03:16.763Z,23.1
2022-08-05T06:04:22.064Z,23.1
2022-08-05T06:05:27.353Z,23.1
2022-08-05T06:06:33.649Z,23.1
2022-08-05T06:07:39.916Z,23.1
2022-08-05T06:08:46.158Z,23.2
2022-08-05T06:09:52.441Z,23.2
2022-08-05T06:10:58.700Z,23.2
2022-08-05T06:12:04.983Z,23.2
2022-08-05T06:13:11.250Z,23.2
2022-08-05T06:14:17.535Z,23.3
2022-08-05T06:15:23.811Z,23.3
2022-08-05T06:16:30.066Z,23.3
2022-08-05T06:17:36.351Z,23.3
2022-08-05T06:18:42.614Z,23.3
2022-08-05T06:19:47.922Z,23.3
2022-08-05T06:20:54.165Z,23.3
2022-08-05T06:22:00.461Z,23.4
2022-08-05T06:23:06.716Z,23.4
2022-08-05T06:24:12.993Z,23.4
2022-08-05T06:25:19.251Z,23.4
2022-08-05T06:26:25.517Z,23.4
2022-08-05T06:27:30.834Z,23.5
2022-08-05T06:28:36.106Z,23.5
2022-08-05T06:29:42.380Z,23.5
2022-08-05T06:30:48.653Z,23.6
2022-08-05T06:31:54.935Z,23.6
2022-08-05T06:33:01.203Z,23.7
2022-08-05T06:34:07.497Z,23.7
2022-08-05T06:35:13.733Z,23.7
2022-08-05T06:36:20.008Z,23.8
2022-08-05T06:37:26.290Z,23.9
2022-08-05T06:38:32.556Z,23.9
2022-08-05T06:39:38.845Z,24
2022-08-05T06:40:45.109Z,24
2022-08-05T06:41:51.364Z,24
2022-08-05T06:42:56.659Z,24
2022-08-05T06:44:02.936Z,24
2022-08-05T06:45:09.199Z,24.1
2022-08-05T06:46:15.473Z,24.1
2022-08-05T06:47:21.745Z,24.1
2022-08-05T06:48:28.047Z,24.1
2022-08-05T06:49:34.285Z,24.2
2022-08-05T06:50:39.585Z,24.2
2022-08-05T06:51:44.880Z,24.2
2022-08-05T06:52:51.169Z,24.2
2022-08-05T06:53:57.434Z,24.2
2022-08-05T06:55:03.731Z,24.3
2022-08-05T06:56:09.990Z,24.3
2022-08-05T06:57:16.248Z,24.3
2022-08-05T06:58:22.504Z,24.3
2022-08-05T06:59:28.783Z,24.2
2022-08-05T07:00:35.049Z,24.2
2022-08-05T07:01:41.316Z,24.2
2022-08-05T07:02:47.590Z,24.2
2022-08-05T07:03:53.863Z,24.2
2022-08-05T07:05:00.129Z,24.2
2022-08-05T07:06:05.425Z,24.2
2022-08-05T07:07:11.693Z,24.2
2022-08-05T07:08:17.965Z,24.2
2022-08-05T07:09:24.234Z,24.2
2022-08-05T07:10:30.509Z,24.2
2022-08-05T07:11:36.778Z,24.1
2022-08-05T07:12:43.056Z,24.1
2022-08-05T07:13:48.356Z,24.2
2022-08-05T07:14:53.636Z,24.2
2022-08-05T07:15:58.935Z,24.2
2022-08-05T07:17:04.226Z,24.2
2022-08-05T07:18:09.543Z,24.2
2022-08-05T07:19:14.815Z,24.2
2022-08-05T07:20:21.086Z,24.3
2022-08-05T07:21:27.357Z,24.3
2022-08-05T07:22:33.637Z,24.4
2022-08-05T07:23:39.899Z,24.4
2022-08-05T07:24:46.188Z,24.5
2022-08-05T07:25:52.454Z,24.6
2022-08-05T07:26:58.714Z,24.6
2022-08-05T07:28:04.997Z,24.7
2022-08-05T07:29:11.270Z,24.7
2022-08-05T07:30:17.541Z,24.8
2022-08-05T07:31:23.828Z,24.8
2022-08-05T07:32:29.118Z,24.9
2022-08-05T07:33:35.374Z,25
2022-08-05T07:34:41.644Z,25
2022-08-05T07:35:47.923Z,25.1
2022-08-05T07:36:54.183Z,25.2
2022-08-05T07:38:00.473Z,25.2
2022-08-05T07:39:06.767Z,25.3
2022-08-05T07:40:13.006Z,25.4
2022-08-05T07:41:18.300Z,25.5
2022-08-05T07:42:23.591Z,25.5
2022-08-05T07:43:29.871Z,25.5
2022-08-05T07:44:35.167Z,25.6
2022-08-05T07:45:40.451Z,25.6
2022-08-05T07:46:46.727Z,25.6
2022-08-05T07:47:52.995Z,25.6
2022-08-05T07:48:59.267Z,25.7
2022-08-05T07:50:05.558Z,25.7
2022-08-05T07:51:11.816Z,25.7
2022-08-05T07:52:18.084Z,25.7
2022-08-05T07:53:24.353Z,25.7
2022-08-05T07:54:30.622Z,25.7
2022-08-05T07:55:36.892Z,25.8
2022-08-05T07:56:43.168Z,25.8
2022-08-05T07:57:49.443Z,25.8
2022-08-05T07:58:55.704Z,25.8
2022-08-05T08:00:00.998Z,25.9
2022-08-05T08:01:07.276Z,25.9
2022-08-05T08:02:13.546Z,25.9
2022-08-05T08:03:19.821Z,26
2022-08-05T08:04:26.093Z,26.1
2022-08-05T08:05:32.365Z,26.1
2022-08-05T08:06:38.645Z,26.2
2022-08-05T08:07:43.936Z,26.3
2022-08-05T08:08:49.216Z,26.4
2022-08-05T08:09:55.509Z,26.4
2022-08-05T08:11:00.805Z,26.5
2022-08-05T08:12:06.095Z,26.5
2022-08-05T08:13:12.352Z,26.5
2022-08-05T08:14:18.628Z,26.5
2022-08-05T08:15:24.895Z,26.6
2022-08-05T08:16:31.182Z,26.6
2022-08-05T08:17:37.457Z,26.6
2022-08-05T08:18:43.707Z,26.6
2022-08-05T08:19:49.998Z,26.6
2022-08-05T08:20:56.256Z,26.6
2022-08-05T08:22:02.531Z,26.6
2022-08-05T08:23:08.806Z,26.6
2022-08-05T08:24:15.080Z,26.6
2022-08-05T08:25:21.346Z,26.6
2022-08-05T08:26:26.632Z,26.5
2022-08-05T08:27:32.897Z,26.6
2022-08-05T08:28:39.177Z,26.6
2022-08-05T08:29:45.445Z,26.6
2022-08-05T08:30:51.716Z,26.6
2022-08-05T08:31:57.991Z,26.6
2022-08-05T08:33:04.277Z,26.6
2022-08-05T08:34:09.579Z,26.7
2022-08-05T08:35:14.879Z,26.7
2022-08-05T08:36:20.148Z,26.7
2022-08-05T08:37:25.437Z,26.8
2022-08-05T08:38:31.721Z,26.8
2022-08-05T08:39:37.987Z,26.8
2022-08-05T08:40:44.270Z,26.8
2022-08-05T08:41:50.526Z,26.9
2022-08-05T08:42:56.802Z,27
2022-08-05T08:44:03.071Z,27
2022-08-05T08:45:16.147Z,27.1
2022-08-05T08:46:15.631Z,27.2
2022-08-05T08:47:21.893Z,27.2
2022-08-05T08:48:28.160Z,27.3
2022-08-05T08:49:34.462Z,27.4
2022-08-05T08:50:40.708Z,27.4
2022-08-05T08:51:45.988Z,27.4
2022-08-05T08:52:52.286Z,27.4
2022-08-05T08:53:58.535Z,27.4
2022-08-05T08:55:04.804Z,27.4
2022-08-05T08:56:11.075Z,27.4
2022-08-05T08:57:17.347Z,27.4
2022-08-05T08:58:23.623Z,27.4
2022-08-05T08:59:28.926Z,27.4
2022-08-05T09:00:34.207Z,27.4
2022-08-05T09:01:40.483Z,27.4
2022-08-05T09:02:46.748Z,27.4
2022-08-05T09:03:53.033Z,27.4
2022-08-05T09:04:59.309Z,27.4
2022-08-05T09:06:05.569Z,27.4
2022-08-05T09:07:11.841Z,27.4
2022-08-05T09:08:18.110Z,27.4
2022-08-05T09:09:24.410Z,27.4
2022-08-05T09:10:30.657Z,27.4
2022-08-05T09:11:36.951Z,27.4
2022-08-05T09:12:43.205Z,27.4
2022-08-05T09:13:49.477Z,27.4
2022-08-05T09:14:54.760Z,27.4
2022-08-05T09:16:01.043Z,27.4
2022-08-05T09:17:07.318Z,27.5
2022-08-05T09:18:13.610Z,27.5
2022-08-05T09:19:19.868Z,27.5
2022-08-05T09:20:26.130Z,27.6
2022-08-05T09:21:32.401Z,27.6
2022-08-05T09:22:37.713Z,27.7
2022-08-05T09:23:42.987Z,27.7
2022-08-05T09:24:48.285Z,27.7
2022-08-05T09:25:53.583Z,27.7
2022-08-05T09:26:59.851Z,27.8
2022-08-05T09:28:06.120Z,27.9
2022-08-05T09:29:12.393Z,27.9
2022-08-05T09:30:18.668Z,28
2022-08-05T09:31:24.938Z,28.2
2022-08-05T09:32:31.212Z,28.3
2022-08-05T09:33:37.483Z,28.4
2022-08-05T09:34:43.768Z,28.5
2022-08-05T09:35:50.035Z,28.6
2022-08-05T09:36:56.299Z,28.7
2022-08-05T09:38:02.571Z,28.7
2022-08-05T09:39:08.851Z,28.8
2022-08-05T09:40:14.138Z,28.8
2022-08-05T09:41:20.415Z,29
2022-08-05T09:42:26.686Z,29.1
2022-08-05T09:43:32.945Z,29.2
2022-08-05T09:44:39.240Z,29.3
2022-08-05T09:45:45.497Z,29.5
2022-08-05T09:46:51.774Z,29.6
2022-08-05T09:47:57.085Z,29.8
2022-08-05T09:49:02.368Z,29.9
2022-08-05T09:50:08.625Z,30.1
2022-08-05T09:51:14.911Z,30.2
2022-08-05T09:52:21.178Z,30.3
2022-08-05T09:53:27.457Z,30.5
2022-08-05T09:54:33.727Z,30.6
2022-08-05T09:55:39.990Z,30.7
2022-08-05T09:56:46.274Z,30.9
2022-08-05T09:57:52.560Z,31
2022-08-05T09:58:58.812Z,31.1
2022-08-05T10:00:05.085Z,31.3
2022-08-05T10:01:11.353Z,31.4
2022-08-05T10:02:17.625Z,31.5
2022-08-05T10:03:22.910Z,31.6
2022-08-05T10:04:29.196Z,31.8
2022-08-05T10:05:35.460Z,31.9
2022-08-05T10:06:41.738Z,32
2022-08-05T10:07:48.013Z,32
2022-08-05T10:08:54.292Z,32.1
2022-08-05T10:10:00.561Z,32.1
2022-08-05T10:11:05.868Z,32.2
2022-08-05T10:12:11.141Z,32.3
2022-08-05T10:13:17.413Z,32.5
2022-08-05T10:14:22.716Z,32.6
2022-08-05T10:15:28.003Z,32.6
2022-08-05T10:16:34.273Z,32.7
2022-08-05T10:17:40.557Z,32.8
2022-08-05T10:18:46.821Z,32.7
2022-08-05T10:19:52.122Z,32.6
2022-08-05T10:20:57.407Z,32.7
2022-08-05T10:22:03.683Z,32.8
2022-08-05T10:23:09.966Z,32.9
2022-08-05T10:24:16.252Z,33.1
2022-08-05T10:25:22.496Z,33.2
2022-08-05T10:26:28.782Z,33.3
2022-08-05T10:27:35.052Z,33.1
2022-08-05T10:28:41.341Z,33.1
2022-08-05T10:29:47.596Z,33
2022-08-05T10:30:53.859Z,33.1
2022-08-05T10:32:00.148Z,33.2
2022-08-05T10:33:06.408Z,33.3
2022-08-05T10:34:12.685Z,33.3
2022-08-05T10:35:17.969Z,33.3
2022-08-05T10:36:24.258Z,33.3
2022-08-05T10:37:30.518Z,33.5
2022-08-05T10:38:36.788Z,33.8
2022-08-05T10:39:43.068Z,33.8
2022-08-05T10:40:49.349Z,33.9
2022-08-05T10:41:55.609Z,34
2022-08-05T10:43:00.909Z,34
2022-08-05T10:44:06.201Z,33.8
2022-08-05T10:45:11.502Z,33.7
2022-08-05T10:46:16.866Z,33.6
2022-08-05T10:47:23.060Z,33.5
2022-08-05T10:48:29.344Z,33.5
2022-08-05T10:49:35.615Z,33.6
2022-08-05T10:50:41.886Z,33.6
2022-08-05T10:51:48.151Z,33.6
2022-08-05T10:52:54.426Z,33.4
2022-08-05T10:54:00.697Z,33.3
2022-08-05T10:55:06.971Z,33.2
2022-08-05T10:56:13.247Z,33.1
2022-08-05T10:57:19.525Z,33
2022-08-05T10:58:25.802Z,33
2022-08-05T10:59:32.076Z,33
2022-08-05T11:00:37.350Z,32.9
2022-08-05T11:01:43.639Z,32.9
2022-08-05T11:02:49.906Z,32.9
2022-08-05T11:03:56.171Z,32.9
2022-08-05T11:05:02.437Z,33
2022-08-05T11:06:08.716Z,32.9
2022-08-05T11:07:14.988Z,32.8
2022-08-05T11:08:20.291Z,32.8
2022-08-05T11:09:25.576Z,32.7
2022-08-05T11:10:31.865Z,32.7
2022-08-05T11:11:38.124Z,32.7
2022-08-05T11:12:44.392Z,32.6
2022-08-05T11:13:49.685Z,32.6
2022-08-05T11:14:55.962Z,32.3
2022-08-05T11:16:02.233Z,31.9
2022-08-05T11:17:08.516Z,31.6
2022-08-05T11:18:14.794Z,31.4
2022-08-05T11:19:21.052Z,31.4
2022-08-05T11:20:27.321Z,31.5
2022-08-05T11:21:33.606Z,31.7
2022-08-05T11:22:39.871Z,31.9
2022-08-05T11:23:46.142Z,32.1
2022-08-05T11:24:52.428Z,32.4
2022-08-05T11:25:58.712Z,32.7
2022-08-05T11:27:04.959Z,32.9
2022-08-05T11:28:10.259Z,33.1
2022-08-05T11:29:16.517Z,33.3
2022-08-05T11:30:22.833Z,33.5
2022-08-05T11:31:28.089Z,33.6
2022-08-05T11:32:33.395Z,33.8
2022-08-05T11:33:38.685Z,33.8
2022-08-05T11:34:43.973Z,33.9
2022-08-05T11:35:50.252Z,33.8
2022-08-05T11:36:56.525Z,33.6
2022-08-05T11:38:02.795Z,33.6
2022-08-05T11:39:09.091Z,33.6
2022-08-05T11:40:15.340Z,33.6
2022-08-05T11:41:21.614Z,33.3
2022-08-05T11:42:27.879Z,33.2
2022-08-05T11:43:34.157Z,33.1
2022-08-05T11:44:40.430Z,33.1
2022-08-05T11:45:46.701Z,33
2022-08-05T11:46:52.978Z,33
2022-08-05T11:47:59.256Z,32.9
2022-08-05T11:49:04.553Z,32.5
2022-08-05T11:50:10.814Z,32.3
2022-08-05T11:51:17.079Z,32.4
2022-08-05T11:52:23.394Z,32.5
2022-08-05T11:53:29.658Z,32.2
2022-08-05T11:54:35.908Z,32.1
2022-08-05T11:55:42.175Z,32.2
2022-08-05T11:56:47.490Z,32.3
2022-08-05T11:57:52.768Z,32.5
2022-08-05T11:58:58.071Z,32.7
2022-08-05T12:00:03.350Z,32.8
2022-08-05T12:01:09.624Z,33
2022-08-05T12:02:15.923Z,33.2
2022-08-05T12:03:22.167Z,33.4
2022-08-05T12:04:28.450Z,33.6
2022-08-05T12:05:34.715Z,33.7
2022-08-05T12:06:40.989Z,33.9
2022-08-05T12:07:47.269Z,34.1
2022-08-05T12:08:53.536Z,34.2
2022-08-05T12:09:59.815Z,34.3
2022-08-05T12:11:06.084Z,34.5
2022-08-05T12:12:12.387Z,34.5
2022-08-05T12:13:18.630Z,34.5
2022-08-05T12:14:23.916Z,34.5
2022-08-05T12:15:30.186Z,34.5
2022-08-05T12:16:36.462Z,34.5
2022-08-05T12:17:42.728Z,34.4
2022-08-05T12:18:49.005Z,34.3
2022-08-05T12:19:55.277Z,34.2
2022-08-05T12:21:01.554Z,34.2
2022-08-05T12:22:06.849Z,34.1
2022-08-05T12:23:12.167Z,34
2022-08-05T12:24:17.443Z,34
2022-08-05T12:25:22.732Z,33.7
2022-08-05T12:26:29.002Z,33.7
2022-08-05T12:27:35.311Z,33.7
2022-08-05T12:28:41.568Z,33.8
2022-08-05T12:29:47.831Z,34
2022-08-05T12:30:54.089Z,34.1
2022-08-05T12:32:00.373Z,34.3
2022-08-05T12:33:06.646Z,34.5
2022-08-05T12:34:12.916Z,34.6
2022-08-05T12:35:19.188Z,34.8
2022-08-05T12:36:25.463Z,34.8
2022-08-05T12:37:31.836Z,34.9
2022-08-05T12:38:38.013Z,35
2022-08-05T12:39:43.300Z,35.1
2022-08-05T12:40:49.580Z,35.2
2022-08-05T12:41:55.840Z,35.2
2022-08-05T12:43:02.110Z,35.3
2022-08-05T12:44:08.394Z,35.3
2022-08-05T12:45:14.661Z,35.3
2022-08-05T12:46:20.931Z,35.4
2022-08-05T12:47:26.233Z,35.4
2022-08-05T12:48:31.536Z,35.4
2022-08-05T12:49:36.828Z,35.4
2022-08-05T12:50:42.117Z,35.5
2022-08-05T12:51:48.380Z,35.5
2022-08-05T12:52:54.652Z,35.6
2022-08-05T12:54:00.923Z,35.6
2022-08-05T12:55:07.203Z,35.7
2022-08-05T12:56:13.487Z,35.6
2022-08-05T12:57:19.746Z,35.6
2022-08-05T12:58:26.038Z,35.5
2022-08-05T12:59:32.297Z,35.5
2022-08-05T13:00:38.569Z,35.5
2022-08-05T13:01:44.840Z,35.6
2022-08-05T13:02:51.134Z,35.7
2022-08-05T13:03:57.382Z,35.8
2022-08-05T13:05:02.674Z,35.9
2022-08-05T13:06:08.952Z,35.9
2022-08-05T13:07:15.218Z,36
2022-08-05T13:08:21.493Z,36.1
2022-08-05T13:09:27.767Z,36.1
2022-08-05T13:10:34.035Z,36.2
2022-08-05T13:11:40.312Z,36.2
2022-08-05T13:12:45.611Z,36.2
2022-08-05T13:13:50.897Z,36.2
2022-08-05T13:14:57.177Z,36.2
2022-08-05T13:16:03.456Z,36.1
2022-08-05T13:17:09.728Z,36.1
2022-08-05T13:18:15.992Z,36.1
2022-08-05T13:19:22.267Z,36.1
2022-08-05T13:20:28.534Z,36.2
2022-08-05T13:21:34.807Z,36.2
2022-08-05T13:22:41.087Z,36.3
2022-08-05T13:23:47.363Z,36.3
2022-08-05T13:24:53.631Z,36.3
2022-08-05T13:25:59.904Z,36.4
2022-08-05T13:27:06.183Z,36.4
2022-08-05T13:28:11.464Z,36.4
2022-08-05T13:29:17.740Z,36.5
2022-08-05T13:30:24.010Z,36.5
2022-08-05T13:31:30.288Z,36.5
2022-08-05T13:32:36.567Z,36.5
2022-08-05T13:33:42.828Z,36.6
2022-08-05T13:34:49.122Z,36.6
2022-08-05T13:35:54.403Z,36.6
2022-08-05T13:36:59.692Z,36.6
2022-08-05T13:38:04.998Z,36.6
2022-08-05T13:39:10.287Z,36.5
2022-08-05T13:40:16.561Z,36.5
2022-08-05T13:41:21.862Z,36.5
2022-08-05T13:42:27.150Z,36.5
2022-08-05T13:43:33.418Z,36.5
2022-08-05T13:44:39.716Z,36.6
2022-08-05T13:45:45.964Z,36.6
2022-08-05T13:46:52.247Z,36.7
2022-08-05T13:47:58.525Z,36.7
2022-08-05T13:49:04.781Z,36.8
2022-08-05T13:50:11.052Z,36.9
2022-08-05T13:51:17.319Z,36.9
2022-08-05T13:52:23.600Z,37
2022-08-05T13:53:29.875Z,37.1
2022-08-05T13:54:36.150Z,37.1
2022-08-05T13:55:42.417Z,37.1
2022-08-05T13:56:47.723Z,37.1
2022-08-05T13:57:53.979Z,37.2
2022-08-05T13:59:00.267Z,37.3
2022-08-05T14:00:06.531Z,37.3
2022-08-05T14:01:12.803Z,37.4
2022-08-05T14:02:19.080Z,37.4
2022-08-05T14:03:25.353Z,37.4
2022-08-05T14:04:30.653Z,37.3
2022-08-05T14:05:35.941Z,37.2
2022-08-05T14:06:41.258Z,37.1
2022-08-05T14:07:46.535Z,37
2022-08-05T14:08:52.803Z,37
2022-08-05T14:09:59.075Z,37
2022-08-05T14:11:05.347Z,37
2022-08-05T14:12:11.617Z,37
2022-08-05T14:13:17.902Z,36.9
2022-08-05T14:14:24.236Z,36.8
2022-08-05T14:15:30.437Z,36.9
2022-08-05T14:16:36.727Z,37
2022-08-05T14:17:42.986Z,37.1
2022-08-05T14:18:49.273Z,37.1
2022-08-05T14:19:55.543Z,37.1
2022-08-05T14:21:01.815Z,37.2
2022-08-05T14:22:07.119Z,37.2
2022-08-05T14:23:13.379Z,37.2
2022-08-05T14:24:19.655Z,37.2
2022-08-05T14:25:25.912Z,37.2
2022-08-05T14:26:32.186Z,37.2
2022-08-05T14:27:38.463Z,37.1
2022-08-05T14:28:44.732Z,37.1
2022-08-05T14:29:50.037Z,37
2022-08-05T14:30:55.333Z,37.1
2022-08-05T14:32:01.596Z,37
2022-08-05T14:33:07.885Z,36.9
2022-08-05T14:34:14.174Z,36.5
2022-08-05T14:35:20.409Z,36.2
2022-08-05T14:36:26.748Z,36
2022-08-05T14:37:32.963Z,35.9
2022-08-05T14:38:39.246Z,35.9
2022-08-05T14:39:45.532Z,36
2022-08-05T14:40:51.795Z,36
2022-08-05T14:41:58.060Z,36
2022-08-05T14:43:04.327Z,36
2022-08-05T14:44:10.618Z,36.1
2022-08-05T14:45:15.886Z,36.1
2022-08-05T14:46:22.161Z,36
2022-08-05T14:47:28.443Z,36